sensor_id;sensor_type;location;lat;lon;timestamp;P1;durP1;ratioP1;P2;durP2;ratioP2
45909;SDS011;31622;55.416;37.840;2023-07-30T00:00:49;8.00;;;6.95;;
45909;SDS011;31622;55.416;37.840;2023-07-30T00:03:15;10.57;;;7.60;;
45909;SDS011;31622;55.416;37.840;2023-07-30T00:05:41;12.63;;;7.38;;
45909;SDS011;31622;55.416;37.840;2023-07-30T00:08:07;8.90;;;6.65;;
45909;SDS011;31622;55.416;37.840;2023-07-30T00:10:34;9.50;;;6.55;;
45909;SDS011;31622;55.416;37.840;2023-07-30T00:13:01;9.98;;;7.10;;
45909;SDS011;31622;55.416;37.840;2023-07-30T00:15:26;9.75;;;6.53;;
45909;SDS011;31622;55.416;37.840;2023-07-30T00:17:52;7.85;;;6.35;;
45909;SDS011;31622;55.416;37.840;2023-07-30T00:20:18;9.95;;;6.40;;
45909;SDS011;31622;55.416;37.840;2023-07-30T00:22:43;10.15;;;7.30;;
45909;SDS011;31622;55.416;37.840;2023-07-30T00:25:09;11.63;;;6.47;;
45909;SDS011;31622;55.416;37.840;2023-07-30T00:27:35;8.13;;;6.18;;
45909;SDS011;31622;55.416;37.840;2023-07-30T00:30:01;8.80;;;6.25;;
45909;SDS011;31622;55.416;37.840;2023-07-30T00:32:27;9.95;;;5.80;;
45909;SDS011;31622;55.416;37.840;2023-07-30T00:34:53;9.70;;;6.25;;
45909;SDS011;31622;55.416;37.840;2023-07-30T00:37:19;8.73;;;6.15;;
45909;SDS011;31622;55.416;37.840;2023-07-30T00:39:44;10.88;;;6.22;;
45909;SDS011;31622;55.416;37.840;2023-07-30T00:42:12;8.38;;;6.45;;
45909;SDS011;31622;55.416;37.840;2023-07-30T00:44:38;8.80;;;6.03;;
45909;SDS011;31622;55.416;37.840;2023-07-30T00:47:03;8.73;;;6.07;;
45909;SDS011;31622;55.416;37.840;2023-07-30T00:49:29;7.82;;;5.70;;
45909;SDS011;31622;55.416;37.840;2023-07-30T00:51:55;7.35;;;5.65;;
45909;SDS011;31622;55.416;37.840;2023-07-30T00:54:21;7.43;;;4.93;;
45909;SDS011;31622;55.416;37.840;2023-07-30T00:56:51;7.50;;;5.63;;
45909;SDS011;31622;55.416;37.840;2023-07-30T00:59:17;8.23;;;5.75;;
45909;SDS011;31622;55.416;37.840;2023-07-30T01:01:44;7.63;;;5.53;;
45909;SDS011;31622;55.416;37.840;2023-07-30T01:04:11;8.55;;;5.55;;
45909;SDS011;31622;55.416;37.840;2023-07-30T01:06:37;8.13;;;5.30;;
45909;SDS011;31622;55.416;37.840;2023-07-30T01:09:04;10.25;;;5.55;;
45909;SDS011;31622;55.416;37.840;2023-07-30T01:11:30;9.60;;;5.70;;
45909;SDS011;31622;55.416;37.840;2023-07-30T01:13:56;7.82;;;5.28;;
45909;SDS011;31622;55.416;37.840;2023-07-30T01:16:22;8.85;;;5.20;;
45909;SDS011;31622;55.416;37.840;2023-07-30T01:18:48;7.50;;;4.80;;
45909;SDS011;31622;55.416;37.840;2023-07-30T01:21:14;8.80;;;5.20;;
45909;SDS011;31622;55.416;37.840;2023-07-30T01:23:40;9.60;;;5.50;;
45909;SDS011;31622;55.416;37.840;2023-07-30T01:26:08;7.55;;;5.20;;
45909;SDS011;31622;55.416;37.840;2023-07-30T01:28:37;8.20;;;4.75;;
45909;SDS011;31622;55.416;37.840;2023-07-30T01:31:07;6.43;;;4.82;;
45909;SDS011;31622;55.416;37.840;2023-07-30T01:33:33;9.10;;;5.00;;
45909;SDS011;31622;55.416;37.840;2023-07-30T01:35:59;8.63;;;4.82;;
45909;SDS011;31622;55.416;37.840;2023-07-30T01:38:26;6.03;;;4.57;;
45909;SDS011;31622;55.416;37.840;2023-07-30T01:40:51;7.43;;;5.05;;
45909;SDS011;31622;55.416;37.840;2023-07-30T01:43:17;7.70;;;4.32;;
45909;SDS011;31622;55.416;37.840;2023-07-30T01:45:43;6.65;;;4.82;;
45909;SDS011;31622;55.416;37.840;2023-07-30T01:48:09;7.88;;;4.80;;
45909;SDS011;31622;55.416;37.840;2023-07-30T01:50:34;7.93;;;4.82;;
45909;SDS011;31622;55.416;37.840;2023-07-30T01:53:00;5.95;;;4.82;;
45909;SDS011;31622;55.416;37.840;2023-07-30T01:55:26;6.35;;;4.47;;
45909;SDS011;31622;55.416;37.840;2023-07-30T01:57:51;7.45;;;4.65;;
45909;SDS011;31622;55.416;37.840;2023-07-30T02:00:17;7.75;;;4.60;;
45909;SDS011;31622;55.416;37.840;2023-07-30T02:02:43;7.65;;;4.90;;
45909;SDS011;31622;55.416;37.840;2023-07-30T02:05:09;8.02;;;5.07;;
45909;SDS011;31622;55.416;37.840;2023-07-30T02:07:34;6.47;;;4.82;;
45909;SDS011;31622;55.416;37.840;2023-07-30T02:10:00;8.90;;;4.97;;
45909;SDS011;31622;55.416;37.840;2023-07-30T02:12:26;5.70;;;4.20;;
45909;SDS011;31622;55.416;37.840;2023-07-30T02:14:52;7.60;;;4.35;;
45909;SDS011;31622;55.416;37.840;2023-07-30T02:17:18;6.57;;;4.38;;
45909;SDS011;31622;55.416;37.840;2023-07-30T02:19:43;7.97;;;4.18;;
45909;SDS011;31622;55.416;37.840;2023-07-30T02:22:09;6.80;;;4.53;;
45909;SDS011;31622;55.416;37.840;2023-07-30T02:24:35;5.85;;;4.65;;
45909;SDS011;31622;55.416;37.840;2023-07-30T02:27:00;7.05;;;4.35;;
45909;SDS011;31622;55.416;37.840;2023-07-30T02:29:26;5.40;;;4.03;;
45909;SDS011;31622;55.416;37.840;2023-07-30T02:31:53;7.78;;;4.65;;
45909;SDS011;31622;55.416;37.840;2023-07-30T02:34:19;7.70;;;4.40;;
45909;SDS011;31622;55.416;37.840;2023-07-30T02:36:45;7.40;;;4.50;;
45909;SDS011;31622;55.416;37.840;2023-07-30T02:39:10;6.38;;;4.40;;
45909;SDS011;31622;55.416;37.840;2023-07-30T02:41:36;5.97;;;4.50;;
45909;SDS011;31622;55.416;37.840;2023-07-30T02:44:02;8.20;;;4.15;;
45909;SDS011;31622;55.416;37.840;2023-07-30T02:46:29;5.65;;;4.28;;
45909;SDS011;31622;55.416;37.840;2023-07-30T02:48:54;6.38;;;4.47;;
45909;SDS011;31622;55.416;37.840;2023-07-30T02:51:20;7.10;;;4.30;;
45909;SDS011;31622;55.416;37.840;2023-07-30T02:53:46;7.18;;;4.65;;
45909;SDS011;31622;55.416;37.840;2023-07-30T02:56:11;7.18;;;4.70;;
45909;SDS011;31622;55.416;37.840;2023-07-30T02:58:37;6.85;;;4.22;;
45909;SDS011;31622;55.416;37.840;2023-07-30T03:01:06;7.13;;;4.22;;
45909;SDS011;31622;55.416;37.840;2023-07-30T03:03:33;7.00;;;4.40;;
45909;SDS011;31622;55.416;37.840;2023-07-30T03:05:58;6.07;;;4.63;;
45909;SDS011;31622;55.416;37.840;2023-07-30T03:08:24;8.05;;;5.18;;
45909;SDS011;31622;55.416;37.840;2023-07-30T03:10:50;7.95;;;4.80;;
45909;SDS011;31622;55.416;37.840;2023-07-30T03:13:15;5.60;;;4.57;;
45909;SDS011;31622;55.416;37.840;2023-07-30T03:15:41;6.03;;;4.63;;
45909;SDS011;31622;55.416;37.840;2023-07-30T03:18:07;7.03;;;5.13;;
45909;SDS011;31622;55.416;37.840;2023-07-30T03:20:33;5.93;;;4.35;;
45909;SDS011;31622;55.416;37.840;2023-07-30T03:22:58;6.35;;;4.72;;
45909;SDS011;31622;55.416;37.840;2023-07-30T03:25:24;5.18;;;4.50;;
45909;SDS011;31622;55.416;37.840;2023-07-30T03:27:50;8.35;;;5.25;;
45909;SDS011;31622;55.416;37.840;2023-07-30T03:30:16;6.63;;;5.22;;
45909;SDS011;31622;55.416;37.840;2023-07-30T03:32:41;10.00;;;4.97;;
45909;SDS011;31622;55.416;37.840;2023-07-30T03:35:07;7.88;;;5.28;;
45909;SDS011;31622;55.416;37.840;2023-07-30T03:37:33;6.13;;;4.55;;
45909;SDS011;31622;55.416;37.840;2023-07-30T03:39:59;6.70;;;4.35;;
45909;SDS011;31622;55.416;37.840;2023-07-30T03:42:25;5.30;;;4.50;;
45909;SDS011;31622;55.416;37.840;2023-07-30T03:44:50;7.00;;;5.10;;
45909;SDS011;31622;55.416;37.840;2023-07-30T03:47:16;13.55;;;4.50;;
45909;SDS011;31622;55.416;37.840;2023-07-30T03:49:42;7.22;;;4.95;;
45909;SDS011;31622;55.416;37.840;2023-07-30T03:52:07;6.88;;;4.70;;
45909;SDS011;31622;55.416;37.840;2023-07-30T03:54:33;10.23;;;4.85;;
45909;SDS011;31622;55.416;37.840;2023-07-30T03:56:59;6.45;;;4.68;;
45909;SDS011;31622;55.416;37.840;2023-07-30T03:59:26;5.78;;;5.10;;
45909;SDS011;31622;55.416;37.840;2023-07-30T04:01:51;7.75;;;5.90;;
45909;SDS011;31622;55.416;37.840;2023-07-30T04:04:17;10.88;;;6.72;;
45909;SDS011;31622;55.416;37.840;2023-07-30T04:06:43;9.80;;;7.53;;
45909;SDS011;31622;55.416;37.840;2023-07-30T04:09:08;7.70;;;6.72;;
45909;SDS011;31622;55.416;37.840;2023-07-30T04:11:34;8.02;;;6.60;;
45909;SDS011;31622;55.416;37.840;2023-07-30T04:14:00;10.65;;;7.13;;
45909;SDS011;31622;55.416;37.840;2023-07-30T04:16:25;7.80;;;6.88;;
45909;SDS011;31622;55.416;37.840;2023-07-30T04:18:51;9.48;;;6.88;;
45909;SDS011;31622;55.416;37.840;2023-07-30T04:21:17;8.00;;;6.18;;
45909;SDS011;31622;55.416;37.840;2023-07-30T04:23:43;8.57;;;7.43;;
45909;SDS011;31622;55.416;37.840;2023-07-30T04:26:08;10.57;;;7.07;;
45909;SDS011;31622;55.416;37.840;2023-07-30T04:28:34;9.60;;;7.20;;
45909;SDS011;31622;55.416;37.840;2023-07-30T04:30:59;11.43;;;7.43;;
45909;SDS011;31622;55.416;37.840;2023-07-30T04:33:25;13.20;;;8.25;;
45909;SDS011;31622;55.416;37.840;2023-07-30T04:35:53;10.65;;;7.53;;
45909;SDS011;31622;55.416;37.840;2023-07-30T04:38:18;15.18;;;7.78;;
45909;SDS011;31622;55.416;37.840;2023-07-30T04:40:44;10.18;;;6.30;;
45909;SDS011;31622;55.416;37.840;2023-07-30T04:43:13;13.10;;;7.78;;
45909;SDS011;31622;55.416;37.840;2023-07-30T04:45:39;9.73;;;6.75;;
45909;SDS011;31622;55.416;37.840;2023-07-30T04:48:05;14.55;;;8.02;;
45909;SDS011;31622;55.416;37.840;2023-07-30T04:50:31;12.27;;;6.70;;
45909;SDS011;31622;55.416;37.840;2023-07-30T04:52:57;11.40;;;6.80;;
45909;SDS011;31622;55.416;37.840;2023-07-30T04:55:24;11.13;;;6.25;;
45909;SDS011;31622;55.416;37.840;2023-07-30T04:57:49;11.43;;;6.38;;
45909;SDS011;31622;55.416;37.840;2023-07-30T05:00:15;9.80;;;5.25;;
45909;SDS011;31622;55.416;37.840;2023-07-30T05:02:42;13.02;;;5.50;;
45909;SDS011;31622;55.416;37.840;2023-07-30T05:05:08;11.27;;;6.10;;
45909;SDS011;31622;55.416;37.840;2023-07-30T05:07:33;8.95;;;5.97;;
45909;SDS011;31622;55.416;37.840;2023-07-30T05:09:59;10.40;;;5.10;;
45909;SDS011;31622;55.416;37.840;2023-07-30T05:12:25;9.32;;;5.18;;
45909;SDS011;31622;55.416;37.840;2023-07-30T05:14:51;11.93;;;6.75;;
45909;SDS011;31622;55.416;37.840;2023-07-30T05:17:17;9.88;;;4.80;;
45909;SDS011;31622;55.416;37.840;2023-07-30T05:19:43;8.48;;;4.45;;
45909;SDS011;31622;55.416;37.840;2023-07-30T05:22:08;9.65;;;4.43;;
45909;SDS011;31622;55.416;37.840;2023-07-30T05:24:34;10.63;;;5.00;;
45909;SDS011;31622;55.416;37.840;2023-07-30T05:27:02;8.60;;;4.63;;
45909;SDS011;31622;55.416;37.840;2023-07-30T05:29:27;8.80;;;4.20;;
45909;SDS011;31622;55.416;37.840;2023-07-30T05:31:53;7.07;;;4.45;;
45909;SDS011;31622;55.416;37.840;2023-07-30T05:34:19;6.97;;;4.28;;
45909;SDS011;31622;55.416;37.840;2023-07-30T05:36:44;9.45;;;4.32;;
45909;SDS011;31622;55.416;37.840;2023-07-30T05:39:10;7.20;;;3.88;;
45909;SDS011;31622;55.416;37.840;2023-07-30T05:41:36;5.28;;;3.90;;
45909;SDS011;31622;55.416;37.840;2023-07-30T05:44:01;5.57;;;3.92;;
45909;SDS011;31622;55.416;37.840;2023-07-30T05:46:27;6.90;;;4.00;;
45909;SDS011;31622;55.416;37.840;2023-07-30T05:48:53;7.40;;;3.63;;
45909;SDS011;31622;55.416;37.840;2023-07-30T05:51:18;5.10;;;3.40;;
45909;SDS011;31622;55.416;37.840;2023-07-30T05:53:44;6.35;;;3.88;;
45909;SDS011;31622;55.416;37.840;2023-07-30T05:56:10;6.07;;;3.72;;
45909;SDS011;31622;55.416;37.840;2023-07-30T05:58:38;6.95;;;3.63;;
45909;SDS011;31622;55.416;37.840;2023-07-30T06:01:04;7.18;;;3.65;;
45909;SDS011;31622;55.416;37.840;2023-07-30T06:03:30;9.90;;;3.78;;
45909;SDS011;31622;55.416;37.840;2023-07-30T06:05:55;10.50;;;4.55;;
45909;SDS011;31622;55.416;37.840;2023-07-30T06:08:21;12.70;;;4.78;;
45909;SDS011;31622;55.416;37.840;2023-07-30T06:10:47;13.07;;;4.50;;
45909;SDS011;31622;55.416;37.840;2023-07-30T06:13:12;15.57;;;4.88;;
45909;SDS011;31622;55.416;37.840;2023-07-30T06:15:38;14.80;;;4.65;;
45909;SDS011;31622;55.416;37.840;2023-07-30T06:18:04;10.68;;;3.70;;
45909;SDS011;31622;55.416;37.840;2023-07-30T06:20:30;10.82;;;3.63;;
45909;SDS011;31622;55.416;37.840;2023-07-30T06:22:56;8.95;;;3.40;;
45909;SDS011;31622;55.416;37.840;2023-07-30T06:25:21;7.00;;;3.10;;
45909;SDS011;31622;55.416;37.840;2023-07-30T06:27:47;7.05;;;3.45;;
45909;SDS011;31622;55.416;37.840;2023-07-30T06:30:13;5.95;;;3.00;;
45909;SDS011;31622;55.416;37.840;2023-07-30T06:32:38;7.85;;;2.90;;
45909;SDS011;31622;55.416;37.840;2023-07-30T06:35:04;5.07;;;2.85;;
45909;SDS011;31622;55.416;37.840;2023-07-30T06:37:31;7.60;;;3.00;;
45909;SDS011;31622;55.416;37.840;2023-07-30T06:39:56;7.13;;;2.70;;
45909;SDS011;31622;55.416;37.840;2023-07-30T06:42:22;4.85;;;2.78;;
45909;SDS011;31622;55.416;37.840;2023-07-30T06:44:48;6.10;;;2.95;;
45909;SDS011;31622;55.416;37.840;2023-07-30T06:47:13;3.75;;;2.33;;
45909;SDS011;31622;55.416;37.840;2023-07-30T06:49:39;5.38;;;2.58;;
45909;SDS011;31622;55.416;37.840;2023-07-30T06:52:05;3.65;;;2.42;;
45909;SDS011;31622;55.416;37.840;2023-07-30T06:54:31;4.40;;;2.38;;
45909;SDS011;31622;55.416;37.840;2023-07-30T06:56:57;6.07;;;3.05;;
45909;SDS011;31622;55.416;37.840;2023-07-30T06:59:22;5.32;;;2.50;;
45909;SDS011;31622;55.416;37.840;2023-07-30T07:01:48;13.18;;;4.72;;
45909;SDS011;31622;55.416;37.840;2023-07-30T07:04:14;8.57;;;3.15;;
45909;SDS011;31622;55.416;37.840;2023-07-30T07:06:40;10.60;;;3.83;;
45909;SDS011;31622;55.416;37.840;2023-07-30T07:09:06;8.75;;;3.50;;
45909;SDS011;31622;55.416;37.840;2023-07-30T07:11:31;9.52;;;3.40;;
45909;SDS011;31622;55.416;37.840;2023-07-30T07:13:57;17.77;;;5.63;;
45909;SDS011;31622;55.416;37.840;2023-07-30T07:16:23;9.95;;;4.85;;
45909;SDS011;31622;55.416;37.840;2023-07-30T07:18:48;13.88;;;4.80;;
45909;SDS011;31622;55.416;37.840;2023-07-30T07:21:14;11.95;;;4.60;;
45909;SDS011;31622;55.416;37.840;2023-07-30T07:23:40;9.38;;;4.10;;
45909;SDS011;31622;55.416;37.840;2023-07-30T07:26:06;13.93;;;3.83;;
45909;SDS011;31622;55.416;37.840;2023-07-30T07:28:31;8.68;;;4.45;;
45909;SDS011;31622;55.416;37.840;2023-07-30T07:30:57;8.52;;;2.95;;
45909;SDS011;31622;55.416;37.840;2023-07-30T07:33:23;5.30;;;2.67;;
45909;SDS011;31622;55.416;37.840;2023-07-30T07:35:49;6.88;;;2.80;;
45909;SDS011;31622;55.416;37.840;2023-07-30T07:38:16;5.60;;;2.75;;
45909;SDS011;31622;55.416;37.840;2023-07-30T07:40:42;6.68;;;2.58;;
45909;SDS011;31622;55.416;37.840;2023-07-30T07:43:09;3.25;;;2.15;;
45909;SDS011;31622;55.416;37.840;2023-07-30T07:45:34;4.20;;;2.40;;
45909;SDS011;31622;55.416;37.840;2023-07-30T07:48:00;9.63;;;2.92;;
45909;SDS011;31622;55.416;37.840;2023-07-30T07:50:26;10.80;;;3.67;;
45909;SDS011;31622;55.416;37.840;2023-07-30T07:52:51;24.08;;;6.78;;
45909;SDS011;31622;55.416;37.840;2023-07-30T07:55:17;27.48;;;7.93;;
45909;SDS011;31622;55.416;37.840;2023-07-30T07:57:43;29.15;;;10.60;;
45909;SDS011;31622;55.416;37.840;2023-07-30T08:00:08;29.70;;;11.23;;
45909;SDS011;31622;55.416;37.840;2023-07-30T08:02:37;25.08;;;8.65;;
45909;SDS011;31622;55.416;37.840;2023-07-30T08:05:03;21.40;;;8.02;;
45909;SDS011;31622;55.416;37.840;2023-07-30T08:07:29;19.27;;;7.13;;
45909;SDS011;31622;55.416;37.840;2023-07-30T08:09:54;13.93;;;5.78;;
45909;SDS011;31622;55.416;37.840;2023-07-30T08:12:20;8.25;;;3.67;;
45909;SDS011;31622;55.416;37.840;2023-07-30T08:14:46;12.00;;;3.75;;
45909;SDS011;31622;55.416;37.840;2023-07-30T08:17:12;6.65;;;3.17;;
45909;SDS011;31622;55.416;37.840;2023-07-30T08:19:37;5.10;;;2.65;;
45909;SDS011;31622;55.416;37.840;2023-07-30T08:22:03;9.10;;;2.15;;
45909;SDS011;31622;55.416;37.840;2023-07-30T08:24:29;6.38;;;1.95;;
45909;SDS011;31622;55.416;37.840;2023-07-30T08:26:55;6.18;;;2.28;;
45909;SDS011;31622;55.416;37.840;2023-07-30T08:29:20;4.03;;;2.28;;
45909;SDS011;31622;55.416;37.840;2023-07-30T08:31:46;3.35;;;1.90;;
45909;SDS011;31622;55.416;37.840;2023-07-30T08:34:12;4.07;;;1.90;;
45909;SDS011;31622;55.416;37.840;2023-07-30T08:36:38;3.13;;;1.90;;
45909;SDS011;31622;55.416;37.840;2023-07-30T08:39:04;3.78;;;1.90;;
45909;SDS011;31622;55.416;37.840;2023-07-30T08:41:30;4.40;;;1.90;;
45909;SDS011;31622;55.416;37.840;2023-07-30T08:43:56;7.65;;;2.47;;
45909;SDS011;31622;55.416;37.840;2023-07-30T08:46:22;7.80;;;2.38;;
45909;SDS011;31622;55.416;37.840;2023-07-30T08:48:48;4.55;;;1.83;;
45909;SDS011;31622;55.416;37.840;2023-07-30T08:51:14;6.05;;;2.42;;
45909;SDS011;31622;55.416;37.840;2023-07-30T08:53:40;7.30;;;2.03;;
45909;SDS011;31622;55.416;37.840;2023-07-30T08:56:07;6.07;;;2.22;;
45909;SDS011;31622;55.416;37.840;2023-07-30T08:58:33;3.88;;;1.92;;
45909;SDS011;31622;55.416;37.840;2023-07-30T09:00:59;4.38;;;1.80;;
45909;SDS011;31622;55.416;37.840;2023-07-30T09:03:27;10.93;;;2.50;;
45909;SDS011;31622;55.416;37.840;2023-07-30T09:05:53;7.45;;;2.40;;
45909;SDS011;31622;55.416;37.840;2023-07-30T09:08:19;9.15;;;2.35;;
45909;SDS011;31622;55.416;37.840;2023-07-30T09:10:45;3.80;;;2.22;;
45909;SDS011;31622;55.416;37.840;2023-07-30T09:13:10;6.50;;;2.30;;
45909;SDS011;31622;55.416;37.840;2023-07-30T09:15:36;6.07;;;2.13;;
45909;SDS011;31622;55.416;37.840;2023-07-30T09:18:04;3.38;;;2.25;;
45909;SDS011;31622;55.416;37.840;2023-07-30T09:20:39;3.83;;;2.35;;
45909;SDS011;31622;55.416;37.840;2023-07-30T09:23:06;5.88;;;2.20;;
45909;SDS011;31622;55.416;37.840;2023-07-30T09:25:33;3.72;;;2.40;;
45909;SDS011;31622;55.416;37.840;2023-07-30T09:27:59;4.28;;;2.45;;
45909;SDS011;31622;55.416;37.840;2023-07-30T09:30:25;3.45;;;2.47;;
45909;SDS011;31622;55.416;37.840;2023-07-30T09:32:53;6.05;;;2.33;;
45909;SDS011;31622;55.416;37.840;2023-07-30T09:35:20;3.38;;;2.30;;
45909;SDS011;31622;55.416;37.840;2023-07-30T09:37:47;3.53;;;2.25;;
45909;SDS011;31622;55.416;37.840;2023-07-30T09:40:14;3.20;;;1.92;;
45909;SDS011;31622;55.416;37.840;2023-07-30T09:42:42;7.65;;;2.40;;
45909;SDS011;31622;55.416;37.840;2023-07-30T09:45:16;11.98;;;3.42;;
45909;SDS011;31622;55.416;37.840;2023-07-30T09:47:47;22.17;;;3.25;;
45909;SDS011;31622;55.416;37.840;2023-07-30T09:50:13;5.00;;;2.22;;
45909;SDS011;31622;55.416;37.840;2023-07-30T09:52:39;6.18;;;2.17;;
45909;SDS011;31622;55.416;37.840;2023-07-30T09:55:06;6.15;;;2.40;;
45909;SDS011;31622;55.416;37.840;2023-07-30T09:57:32;6.45;;;2.80;;
45909;SDS011;31622;55.416;37.840;2023-07-30T09:59:58;5.45;;;1.90;;
45909;SDS011;31622;55.416;37.840;2023-07-30T10:02:24;6.40;;;2.40;;
45909;SDS011;31622;55.416;37.840;2023-07-30T10:04:51;3.83;;;2.10;;
45909;SDS011;31622;55.416;37.840;2023-07-30T10:07:20;5.05;;;2.65;;
45909;SDS011;31622;55.416;37.840;2023-07-30T10:09:47;6.47;;;2.22;;
45909;SDS011;31622;55.416;37.840;2023-07-30T10:12:18;3.63;;;2.03;;
45909;SDS011;31622;55.416;37.840;2023-07-30T10:14:46;3.92;;;2.00;;
45909;SDS011;31622;55.416;37.840;2023-07-30T10:17:12;3.75;;;2.35;;
45909;SDS011;31622;55.416;37.840;2023-07-30T10:19:38;10.02;;;4.40;;
45909;SDS011;31622;55.416;37.840;2023-07-30T10:24:39;7.95;;;3.88;;
45909;SDS011;31622;55.416;37.840;2023-07-30T10:27:08;15.50;;;5.47;;
45909;SDS011;31622;55.416;37.840;2023-07-30T10:29:35;14.48;;;7.88;;
45909;SDS011;31622;55.416;37.840;2023-07-30T10:32:03;11.40;;;8.00;;
45909;SDS011;31622;55.416;37.840;2023-07-30T10:34:47;13.13;;;7.72;;
45909;SDS011;31622;55.416;37.840;2023-07-30T10:37:22;9.40;;;4.68;;
45909;SDS011;31622;55.416;37.840;2023-07-30T10:39:50;6.10;;;4.28;;
45909;SDS011;31622;55.416;37.840;2023-07-30T10:42:16;14.43;;;6.32;;
45909;SDS011;31622;55.416;37.840;2023-07-30T10:44:44;7.13;;;4.82;;
45909;SDS011;31622;55.416;37.840;2023-07-30T10:47:10;17.42;;;12.38;;
45909;SDS011;31622;55.416;37.840;2023-07-30T10:49:36;19.02;;;14.75;;
45909;SDS011;31622;55.416;37.840;2023-07-30T10:52:03;23.15;;;19.92;;
45909;SDS011;31622;55.416;37.840;2023-07-30T10:54:33;32.25;;;23.90;;
45909;SDS011;31622;55.416;37.840;2023-07-30T10:56:59;25.88;;;17.65;;
45909;SDS011;31622;55.416;37.840;2023-07-30T10:59:25;13.05;;;7.65;;
45909;SDS011;31622;55.416;37.840;2023-07-30T11:01:52;7.35;;;4.43;;
45909;SDS011;31622;55.416;37.840;2023-07-30T11:04:19;5.95;;;3.50;;
45909;SDS011;31622;55.416;37.840;2023-07-30T11:06:49;5.55;;;3.20;;
45909;SDS011;31622;55.416;37.840;2023-07-30T11:09:22;7.95;;;3.13;;
45909;SDS011;31622;55.416;37.840;2023-07-30T11:11:49;4.25;;;2.58;;
45909;SDS011;31622;55.416;37.840;2023-07-30T11:14:19;4.10;;;2.15;;
45909;SDS011;31622;55.416;37.840;2023-07-30T11:16:49;3.63;;;2.63;;
45909;SDS011;31622;55.416;37.840;2023-07-30T11:19:16;3.45;;;2.90;;
45909;SDS011;31622;55.416;37.840;2023-07-30T11:21:49;6.38;;;3.20;;
45909;SDS011;31622;55.416;37.840;2023-07-30T11:24:16;5.68;;;2.65;;
45909;SDS011;31622;55.416;37.840;2023-07-30T11:26:42;3.08;;;2.33;;
45909;SDS011;31622;55.416;37.840;2023-07-30T11:29:15;6.30;;;3.00;;
45909;SDS011;31622;55.416;37.840;2023-07-30T11:31:44;3.92;;;1.85;;
45909;SDS011;31622;55.416;37.840;2023-07-30T11:34:10;3.30;;;1.88;;
45909;SDS011;31622;55.416;37.840;2023-07-30T11:36:36;4.80;;;2.30;;
45909;SDS011;31622;55.416;37.840;2023-07-30T11:39:02;5.70;;;2.35;;
45909;SDS011;31622;55.416;37.840;2023-07-30T11:41:29;4.45;;;2.95;;
45909;SDS011;31622;55.416;37.840;2023-07-30T11:43:54;3.25;;;2.38;;
45909;SDS011;31622;55.416;37.840;2023-07-30T11:46:21;5.85;;;1.83;;
45909;SDS011;31622;55.416;37.840;2023-07-30T11:48:48;5.20;;;2.30;;
45909;SDS011;31622;55.416;37.840;2023-07-30T11:54:04;5.70;;;2.60;;
45909;SDS011;31622;55.416;37.840;2023-07-30T11:56:32;7.15;;;2.17;;
45909;SDS011;31622;55.416;37.840;2023-07-30T11:59:00;4.28;;;2.40;;
45909;SDS011;31622;55.416;37.840;2023-07-30T12:01:29;4.72;;;1.90;;
45909;SDS011;31622;55.416;37.840;2023-07-30T12:03:56;4.13;;;1.95;;
45909;SDS011;31622;55.416;37.840;2023-07-30T12:06:22;2.65;;;1.77;;
45909;SDS011;31622;55.416;37.840;2023-07-30T12:08:49;3.33;;;1.92;;
45909;SDS011;31622;55.416;37.840;2023-07-30T12:11:15;2.88;;;1.90;;
45909;SDS011;31622;55.416;37.840;2023-07-30T12:13:43;5.00;;;2.28;;
45909;SDS011;31622;55.416;37.840;2023-07-30T12:16:13;3.22;;;2.28;;
45909;SDS011;31622;55.416;37.840;2023-07-30T12:18:39;5.28;;;2.50;;
45909;SDS011;31622;55.416;37.840;2023-07-30T12:21:06;3.38;;;1.92;;
45909;SDS011;31622;55.416;37.840;2023-07-30T12:23:35;3.30;;;1.80;;
45909;SDS011;31622;55.416;37.840;2023-07-30T12:26:02;4.57;;;2.40;;
45909;SDS011;31622;55.416;37.840;2023-07-30T12:28:30;5.72;;;2.25;;
45909;SDS011;31622;55.416;37.840;2023-07-30T12:30:57;5.25;;;2.08;;
45909;SDS011;31622;55.416;37.840;2023-07-30T12:33:23;3.10;;;1.60;;
45909;SDS011;31622;55.416;37.840;2023-07-30T12:35:49;5.28;;;1.60;;
45909;SDS011;31622;55.416;37.840;2023-07-30T12:38:15;3.15;;;2.20;;
45909;SDS011;31622;55.416;37.840;2023-07-30T12:40:41;4.78;;;1.98;;
45909;SDS011;31622;55.416;37.840;2023-07-30T12:43:06;3.78;;;1.83;;
45909;SDS011;31622;55.416;37.840;2023-07-30T12:45:34;3.25;;;2.03;;
45909;SDS011;31622;55.416;37.840;2023-07-30T12:48:00;3.40;;;1.80;;
45909;SDS011;31622;55.416;37.840;2023-07-30T12:50:26;2.88;;;1.75;;
45909;SDS011;31622;55.416;37.840;2023-07-30T12:52:52;3.35;;;1.75;;
45909;SDS011;31622;55.416;37.840;2023-07-30T12:55:18;5.65;;;1.50;;
45909;SDS011;31622;55.416;37.840;2023-07-30T12:57:45;3.67;;;1.80;;
45909;SDS011;31622;55.416;37.840;2023-07-30T13:00:11;3.00;;;1.80;;
45909;SDS011;31622;55.416;37.840;2023-07-30T13:02:37;4.00;;;1.63;;
45909;SDS011;31622;55.416;37.840;2023-07-30T13:05:02;3.38;;;1.80;;
45909;SDS011;31622;55.416;37.840;2023-07-30T13:07:29;3.55;;;1.65;;
45909;SDS011;31622;55.416;37.840;2023-07-30T13:10:02;4.25;;;1.88;;
45909;SDS011;31622;55.416;37.840;2023-07-30T13:12:32;3.10;;;1.70;;
45909;SDS011;31622;55.416;37.840;2023-07-30T13:14:58;2.53;;;1.40;;
45909;SDS011;31622;55.416;37.840;2023-07-30T13:17:25;2.78;;;1.80;;
45909;SDS011;31622;55.416;37.840;2023-07-30T13:19:51;3.42;;;1.70;;
45909;SDS011;31622;55.416;37.840;2023-07-30T13:22:17;3.75;;;1.77;;
45909;SDS011;31622;55.416;37.840;2023-07-30T13:24:43;2.95;;;1.70;;
45909;SDS011;31622;55.416;37.840;2023-07-30T13:27:08;5.65;;;1.70;;
45909;SDS011;31622;55.416;37.840;2023-07-30T13:29:34;5.63;;;1.67;;
45909;SDS011;31622;55.416;37.840;2023-07-30T13:32:00;2.92;;;1.27;;
45909;SDS011;31622;55.416;37.840;2023-07-30T13:34:26;3.85;;;1.67;;
45909;SDS011;31622;55.416;37.840;2023-07-30T13:36:52;3.30;;;1.70;;
45909;SDS011;31622;55.416;37.840;2023-07-30T13:39:17;2.63;;;1.80;;
45909;SDS011;31622;55.416;37.840;2023-07-30T13:41:43;4.03;;;1.63;;
45909;SDS011;31622;55.416;37.840;2023-07-30T13:44:09;3.17;;;1.52;;
45909;SDS011;31622;55.416;37.840;2023-07-30T13:46:39;2.92;;;1.67;;
45909;SDS011;31622;55.416;37.840;2023-07-30T13:49:05;4.10;;;1.85;;
45909;SDS011;31622;55.416;37.840;2023-07-30T13:51:31;2.88;;;1.77;;
45909;SDS011;31622;55.416;37.840;2023-07-30T13:53:58;2.70;;;1.45;;
45909;SDS011;31622;55.416;37.840;2023-07-30T13:56:25;3.75;;;1.60;;
45909;SDS011;31622;55.416;37.840;2023-07-30T13:58:51;6.00;;;1.90;;
45909;SDS011;31622;55.416;37.840;2023-07-30T14:01:17;2.28;;;1.67;;
45909;SDS011;31622;55.416;37.840;2023-07-30T14:03:43;2.85;;;1.75;;
45909;SDS011;31622;55.416;37.840;2023-07-30T14:06:09;2.92;;;1.60;;
45909;SDS011;31622;55.416;37.840;2023-07-30T14:08:35;3.85;;;1.70;;
45909;SDS011;31622;55.416;37.840;2023-07-30T14:11:00;4.50;;;2.17;;
45909;SDS011;31622;55.416;37.840;2023-07-30T14:13:26;4.43;;;1.90;;
45909;SDS011;31622;55.416;37.840;2023-07-30T14:15:52;3.00;;;1.80;;
45909;SDS011;31622;55.416;37.840;2023-07-30T14:18:18;2.38;;;1.58;;
45909;SDS011;31622;55.416;37.840;2023-07-30T14:20:44;4.20;;;1.70;;
45909;SDS011;31622;55.416;37.840;2023-07-30T14:23:09;3.58;;;1.58;;
45909;SDS011;31622;55.416;37.840;2023-07-30T14:25:36;2.50;;;1.48;;
45909;SDS011;31622;55.416;37.840;2023-07-30T14:28:04;3.38;;;1.70;;
45909;SDS011;31622;55.416;37.840;2023-07-30T14:30:30;4.45;;;1.92;;